Time;durP1;ratioP1;P1;durP2;ratioP2;P2;SDS_P1;SDS_P2;PMS_P1;PMS_P2;Temp;Humidity;BMP_temperature;BMP_pressure;BME280_temperature;BME280_humidity;BME280_pressure;Samples;Min_cycle;Max_cycle;Signal;HPM_P1;HPM_P2
2024/01/13 00:00:58;;;;;;;14.40;13.90;;;;;;;-141.02;100.00;38461.75;5112868;28;20288;-63
2024/01/13 00:03:25;;;;;;;13.10;12.70;;;;;;;-141.02;100.00;38521.19;5112762;28;20189;-67
2024/01/13 00:05:53;;;;;;;13.80;13.40;;;;;;;-141.02;100.00;38446.41;5113069;28;20197;-67
2024/01/13 00:08:20;;;;;;;13.33;12.93;;;;;;;-141.02;100.00;38461.75;5112697;28;20733;-67
2024/01/13 00:10:47;;;;;;;13.43;13.03;;;;;;;-141.02;100.00;38450.25;5112688;28;20189;-67
2024/01/13 00:13:15;;;;;;;13.30;12.90;;;;;;;-141.02;100.00;38446.41;5112972;28;20196;-65
2024/01/13 00:15:42;;;;;;;13.30;12.90;;;;;;;-141.02;100.00;38461.75;5112445;28;20723;-67
2024/01/13 00:18:09;;;;;;;13.17;12.77;;;;;;;-141.02;100.00;38496.28;5112689;28;20195;-66
2024/01/13 00:20:36;;;;;;;12.93;12.43;;;;;;;-141.02;100.00;38465.59;5112901;28;20272;-66
2024/01/13 00:23:05;;;;;;;13.10;12.60;;;;;;;-141.02;100.00;38467.50;5112636;28;20193;-66
2024/01/13 00:25:32;;;;;;;13.00;12.60;;;;;;;-141.02;100.00;38496.28;5112838;28;20276;-66
2024/01/13 00:27:59;;;;;;;12.87;12.47;;;;;;;-141.02;100.00;38500.09;5112728;28;20674;-66
2024/01/13 00:30:25;;;;;;;13.63;13.13;;;;;;;-141.02;100.00;38473.25;5113333;28;20197;-65
2024/01/13 00:32:52;;;;;;;12.97;12.57;;;;;;;-141.02;100.00;38517.34;5112791;28;20225;-66
2024/01/13 00:35:19;;;;;;;13.13;12.63;;;;;;;-141.02;100.00;38509.69;5112783;28;20280;-66
2024/01/13 00:37:46;;;;;;;12.60;12.20;;;;;;;-141.02;100.00;38480.94;5112385;28;20203;-65
2024/01/13 00:40:15;;;;;;;12.20;11.80;;;;;;;-141.02;100.00;38507.78;5112371;28;20288;-66
2024/01/13 00:42:42;;;;;;;13.20;12.70;;;;;;;-141.02;100.00;38515.44;5115212;28;20193;-66
2024/01/13 00:45:09;;;;;;;12.83;12.43;;;;;;;-141.02;100.00;38467.50;5116848;28;20254;-63
2024/01/13 00:47:36;;;;;;;12.43;12.03;;;;;;;-141.02;100.00;38503.94;5116832;28;20235;-67
2024/01/13 00:50:04;;;;;;;12.23;11.83;;;;;;;-141.02;100.00;38502.03;5116534;28;20782;-66
2024/01/13 00:52:31;;;;;;;13.40;12.90;;;;;;;-141.02;100.00;38484.75;5116802;28;20302;-63
2024/01/13 00:54:58;;;;;;;13.80;13.30;;;;;;;-141.02;100.00;38507.78;5116377;28;20284;-66
2024/01/13 00:57:26;;;;;;;12.90;12.50;;;;;;;-141.02;100.00;38530.78;5116337;28;20662;-67
2024/01/13 00:59:53;;;;;;;13.50;13.00;;;;;;;-141.02;100.00;38507.78;5116341;28;20732;-67
2024/01/13 01:02:20;;;;;;;13.53;13.03;;;;;;;-141.02;100.00;38546.13;5116621;28;20199;-65
2024/01/13 01:04:47;;;;;;;13.37;12.87;;;;;;;-141.02;100.00;38517.34;5116238;28;20249;-68
2024/01/13 01:07:14;;;;;;;14.03;13.53;;;;;;;-141.02;100.00;38525.03;5116487;28;20195;-67
2024/01/13 01:09:41;;;;;;;13.73;13.23;;;;;;;-141.02;100.00;38565.28;5116346;28;20232;-67
2024/01/13 01:12:08;;;;;;;13.57;13.07;;;;;;;-141.02;100.00;38526.94;5116443;28;20272;-67
2024/01/13 01:14:37;;;;;;;13.40;12.90;;;;;;;-141.02;100.00;38571.03;5115879;28;20193;-66
2024/01/13 01:17:04;;;;;;;13.40;12.90;;;;;;;-141.02;100.00;38542.28;5116459;28;20250;-66
2024/01/13 01:19:31;;;;;;;13.67;13.17;;;;;;;-141.02;100.00;38553.78;5115962;28;20292;-66
2024/01/13 01:21:58;;;;;;;13.73;13.23;;;;;;;-141.02;100.00;38569.13;5115939;28;20232;-67
2024/01/13 01:24:25;;;;;;;13.30;12.80;;;;;;;-141.02;100.00;38580.63;5115883;28;20683;-67
2024/01/13 01:26:52;;;;;;;13.67;13.17;;;;;;;-141.02;100.00;38580.63;5116148;28;20189;-67
2024/01/13 01:29:19;;;;;;;12.70;12.30;;;;;;;-141.02;100.00;38563.38;5115977;28;20225;-67
2024/01/13 01:31:47;;;;;;;13.23;12.73;;;;;;;-141.02;100.00;38576.78;5115689;28;20280;-67
2024/01/13 01:34:14;;;;;;;13.33;12.83;;;;;;;-141.02;100.00;38601.72;5115663;28;20288;-66
2024/01/13 01:36:41;;;;;;;13.80;13.30;;;;;;;-141.02;100.00;38572.97;5115962;27;20284;-66
2024/01/13 01:39:09;;;;;;;13.80;13.30;;;;;;;-141.02;100.00;38588.28;5115801;28;20647;-66
2024/01/13 01:41:36;;;;;;;14.23;13.63;;;;;;;-141.02;100.00;38572.97;5115857;28;20193;-68
2024/01/13 01:44:04;;;;;;;13.87;13.37;;;;;;;-141.02;100.00;38588.28;5115798;28;20242;-66
2024/01/13 01:46:32;;;;;;;14.30;13.70;;;;;;;-141.02;100.00;38553.78;5115725;28;20202;-65
2024/01/13 01:49:00;;;;;;;14.00;13.50;;;;;;;-141.02;100.00;38569.13;5115591;28;20221;-65
2024/01/13 01:51:30;;;;;;;13.50;13.00;;;;;;;-141.02;100.00;38553.78;5115621;28;20197;-68
2024/01/13 01:53:58;;;;;;;13.90;13.40;;;;;;;-141.02;100.00;38526.94;5113877;28;20298;-67
2024/01/13 01:56:29;;;;;;;15.03;14.43;;;;;;;-141.02;100.00;38519.28;5115208;28;20557;-65
2024/01/13 01:58:56;;;;;;;15.50;14.80;;;;;;;-141.02;100.00;38557.63;5115120;28;20640;-67
2024/01/13 02:01:24;;;;;;;15.47;14.87;;;;;;;-141.02;100.00;38563.38;5115083;28;20207;-67
2024/01/13 02:03:52;;;;;;;15.07;14.47;;;;;;;-141.02;100.00;38557.63;5115436;28;20193;-68
2024/01/13 02:06:21;;;;;;;15.07;14.47;;;;;;;-141.02;100.00;38576.78;5115027;28;20213;-67
2024/01/13 02:08:48;;;;;;;15.60;14.90;;;;;;;-141.02;100.00;38615.13;5115232;28;20604;-67
2024/01/13 02:11:15;;;;;;;16.93;16.13;;;;;;;-141.02;100.00;38584.47;5114962;28;20318;-67
2024/01/13 02:13:43;;;;;;;16.00;15.30;;;;;;;-141.02;100.00;38599.81;5115190;28;20197;-67
2024/01/13 02:16:11;;;;;;;16.70;15.90;;;;;;;-141.02;100.00;38429.16;5114759;28;20229;-68
2024/01/13 02:18:38;;;;;;;16.10;15.40;;;;;;;-141.02;100.00;38569.13;5115117;28;20193;-65
2024/01/13 02:21:05;;;;;;;15.47;14.77;;;;;;;-141.02;100.00;38561.47;5115073;28;20216;-69
2024/01/13 02:23:34;;;;;;;16.23;15.53;;;;;;;-141.02;100.00;38561.47;5115045;28;20292;-68
2024/01/13 02:26:01;;;;;;;15.67;14.97;;;;;;;-141.02;100.00;38542.28;5114756;28;20193;-67
2024/01/13 02:28:28;;;;;;;16.90;16.10;;;;;;;-141.02;100.00;38561.47;5114900;28;20243;-66
2024/01/13 02:30:56;;;;;;;16.50;15.80;;;;;;;-141.02;100.00;38555.69;5114546;28;20228;-67
2024/01/13 02:33:23;;;;;;;15.37;14.67;;;;;;;-141.02;100.00;38549.94;5114561;28;20632;-67
2024/01/13 02:35:50;;;;;;;17.67;16.87;;;;;;;-141.02;100.00;38538.44;5114570;28;20224;-65
2024/01/13 02:38:17;;;;;;;17.20;16.40;;;;;;;-141.02;100.00;38549.94;5114455;28;20228;-66
2024/01/13 02:40:45;;;;;;;17.70;16.90;;;;;;;-141.02;100.00;38542.28;5114355;28;20319;-63
2024/01/13 02:43:12;;;;;;;19.70;18.60;;;;;;;-141.02;100.00;38546.13;5114358;28;20240;-66
2024/01/13 02:45:39;;;;;;;17.43;16.63;;;;;;;-141.02;100.00;38546.13;5114328;28;20250;-68
2024/01/13 02:48:11;;;;;;;18.23;17.40;;;;;;;-141.02;100.00;38319.88;5114486;28;20232;-67
2024/01/13 02:50:38;;;;;;;19.37;18.47;;;;;;;-141.02;100.00;38542.28;5114274;28;20196;-67
2024/01/13 02:53:05;;;;;;;18.90;18.00;;;;;;;-141.02;100.00;38526.94;5114403;28;20225;-67
2024/01/13 02:55:34;;;;;;;18.53;17.63;;;;;;;-141.02;100.00;38542.28;5114179;28;20258;-67
2024/01/13 02:58:02;;;;;;;18.50;17.60;;;;;;;-141.02;100.00;38546.13;5114016;28;20568;-68
2024/01/13 03:00:29;;;;;;;17.60;16.80;;;;;;;-141.02;100.00;38530.78;5114249;28;20280;-67
2024/01/13 03:02:56;;;;;;;19.27;18.37;;;;;;;-141.02;100.00;38557.63;5113976;28;20240;-67
2024/01/13 03:05:23;;;;;;;18.27;17.47;;;;;;;-141.02;100.00;38549.94;5113788;28;20225;-66
2024/01/13 03:07:50;;;;;;;18.87;18.07;;;;;;;-141.02;100.00;38561.47;5113856;28;20199;-67
2024/01/13 03:10:17;;;;;;;34.17;25.07;;;;;;;-141.02;100.00;38511.59;5113676;28;20242;-68
2024/01/13 03:12:44;;;;;;;17.73;17.03;;;;;;;-141.02;100.00;38553.78;5114043;28;20193;-67
2024/01/13 03:15:13;;;;;;;17.13;16.43;;;;;;;-141.02;100.00;38526.94;5113802;28;20235;-66
2024/01/13 03:17:40;;;;;;;19.83;18.83;;;;;;;-141.02;100.00;38480.94;5113666;28;20197;-66
2024/01/13 03:20:09;;;;;;;18.87;17.90;;;;;;;-141.02;100.00;38488.59;5113600;28;20233;-67
2024/01/13 03:22:36;;;;;;;18.10;17.20;;;;;;;-141.02;100.00;38515.44;5113484;28;20232;-67
2024/01/13 03:25:03;;;;;;;18.30;17.47;;;;;;;-141.02;100.00;38490.50;5113509;28;20284;-66
2024/01/13 03:27:30;;;;;;;14.77;14.27;;;;;;;-141.02;100.00;38469.44;5113491;28;20240;-64
2024/01/13 03:29:57;;;;;;;18.90;18.20;;;;;;;-141.02;100.00;38434.91;5113391;28;20673;-67
2024/01/13 03:32:25;;;;;;;15.17;14.67;;;;;;;-141.02;100.00;38452.16;5113679;28;20284;-66
2024/01/13 03:34:52;;;;;;;16.27;15.67;;;;;;;-141.02;100.00;38438.75;5113594;28;20276;-66
2024/01/13 03:37:19;;;;;;;16.13;15.53;;;;;;;-141.02;100.00;38417.66;5113611;28;20627;-67
2024/01/13 03:39:46;;;;;;;15.67;15.17;;;;;;;-141.02;100.00;38415.75;5113526;28;20284;-68
2024/01/13 03:42:13;;;;;;;15.17;14.67;;;;;;;-141.02;100.00;38404.25;5113504;28;20232;-67
2024/01/13 03:44:40;;;;;;;15.90;15.30;;;;;;;-141.02;100.00;38379.31;5113120;28;20655;-68
2024/01/13 03:47:07;;;;;;;14.60;14.10;;;;;;;-141.02;100.00;38400.41;5113338;28;20221;-67
2024/01/13 03:49:36;;;;;;;14.13;13.63;;;;;;;-141.02;100.00;38381.22;5112965;28;20260;-68
2024/01/13 03:52:03;;;;;;;13.13;12.73;;;;;;;-141.02;100.00;38377.41;5112946;28;20675;-67
2024/01/13 03:54:30;;;;;;;13.80;13.30;;;;;;;-141.02;100.00;38367.81;5113828;28;20284;-65
2024/01/13 03:56:56;;;;;;;13.97;13.47;;;;;;;-141.02;100.00;38386.97;5112958;28;20585;-68
2024/01/13 03:59:23;;;;;;;13.83;13.33;;;;;;;-141.02;100.00;38319.88;5113155;28;20195;-66
2024/01/13 04:01:50;;;;;;;14.40;13.80;;;;;;;-141.02;100.00;38314.13;5113155;28;20229;-67
2024/01/13 04:04:17;;;;;;;13.47;12.97;;;;;;;-141.02;100.00;38383.16;5113033;28;20199;-67
2024/01/13 04:06:46;;;;;;;14.20;13.70;;;;;;;-141.02;100.00;38354.41;5113074;28;20193;-66
2024/01/13 04:09:13;;;;;;;14.33;13.73;;;;;;;-141.02;100.00;38365.91;5112995;28;20278;-67
2024/01/13 04:11:40;;;;;;;14.43;13.83;;;;;;;-141.02;100.00;38329.47;5112998;28;20284;-66
2024/01/13 04:14:07;;;;;;;13.90;13.40;;;;;;;-141.02;100.00;38358.22;5112721;28;20193;-67
2024/01/13 04:16:34;;;;;;;14.07;13.57;;;;;;;-141.02;100.00;38377.41;5111766;28;20294;-67
2024/01/13 04:19:00;;;;;;;14.10;13.50;;;;;;;-141.02;100.00;38365.91;5112998;28;20266;-67
2024/01/13 04:21:27;;;;;;;14.27;13.67;;;;;;;-141.02;100.00;38362.06;5112875;28;20197;-66
2024/01/13 04:23:56;;;;;;;14.10;13.50;;;;;;;-141.02;100.00;38375.47;5112561;28;20284;-65
2024/01/13 04:26:23;;;;;;;14.17;13.57;;;;;;;-141.02;100.00;38392.75;5112565;28;20203;-66
2024/01/13 04:28:50;;;;;;;13.63;13.13;;;;;;;-141.02;100.00;38346.72;5112708;28;20236;-67
2024/01/13 04:31:17;;;;;;;14.07;13.50;;;;;;;-141.02;100.00;38354.41;5112807;28;20284;-66
2024/01/13 04:33:44;;;;;;;13.90;13.40;;;;;;;-141.02;100.00;38373.56;5112375;28;20288;-67
2024/01/13 04:36:11;;;;;;;14.30;13.70;;;;;;;-141.02;100.00;38381.22;5112470;28;20280;-67
2024/01/13 04:38:38;;;;;;;15.57;15.00;;;;;;;-141.02;100.00;38362.06;5112706;28;20283;-67
2024/01/13 04:41:07;;;;;;;13.60;13.10;;;;;;;-141.02;100.00;38373.56;5112356;28;20578;-66
2024/01/13 04:43:34;;;;;;;13.73;13.23;;;;;;;-141.02;100.00;38385.06;5112691;28;20193;-66
2024/01/13 04:46:01;;;;;;;13.70;13.20;;;;;;;-141.02;100.00;38381.22;5112584;28;20199;-67
2024/01/13 04:48:28;;;;;;;13.90;13.33;;;;;;;-141.02;100.00;38406.16;5112636;28;20199;-68
2024/01/13 04:50:55;;;;;;;14.47;13.87;;;;;;;-141.02;100.00;38413.81;5112498;28;20312;-68
2024/01/13 04:53:22;;;;;;;14.30;13.70;;;;;;;-141.02;100.00;38423.41;5112253;28;20193;-66
2024/01/13 04:55:49;;;;;;;15.80;15.20;;;;;;;-141.02;100.00;38433.00;5112214;28;20651;-67
2024/01/13 04:58:17;;;;;;;16.67;15.97;;;;;;;-141.02;100.00;38408.06;5112210;28;20284;-68
2024/01/13 05:00:44;;;;;;;16.33;15.63;;;;;;;-141.02;100.00;38421.50;5112534;28;20280;-67
2024/01/13 05:03:11;;;;;;;16.60;15.90;;;;;;;-141.02;100.00;38413.81;5112479;28;20225;-66
2024/01/13 05:05:38;;;;;;;15.00;14.30;;;;;;;-141.02;100.00;38392.75;5112098;28;20194;-68
2024/01/13 05:08:06;;;;;;;16.37;15.67;;;;;;;-141.02;100.00;38404.25;5112111;28;20726;-66
2024/01/13 05:10:32;;;;;;;16.20;15.50;;;;;;;-141.02;100.00;38385.06;5112051;28;20316;-67
2024/01/13 05:12:59;;;;;;;15.70;15.00;;;;;;;-141.02;100.00;38392.75;5112394;28;20194;-66
2024/01/13 05:15:28;;;;;;;13.70;13.10;;;;;;;-141.02;100.00;38396.56;5112054;28;20232;-67
2024/01/13 05:17:55;;;;;;;15.23;14.63;;;;;;;-141.02;100.00;38362.06;5112012;28;20280;-66
2024/01/13 05:20:21;;;;;;;13.90;13.30;;;;;;;-141.02;100.00;38404.25;5112277;28;20201;-66
2024/01/13 05:22:48;;;;;;;14.10;13.50;;;;;;;-141.02;100.00;38371.66;5112291;28;20203;-67
2024/01/13 05:25:16;;;;;;;13.07;12.57;;;;;;;-141.02;100.00;38402.31;5111969;28;20686;-66
2024/01/13 05:27:42;;;;;;;14.70;14.10;;;;;;;-141.02;100.00;38421.50;5112524;28;20289;-66
2024/01/13 05:30:11;;;;;;;13.00;12.50;;;;;;;-141.02;100.00;38415.75;5115734;28;20227;-66
2024/01/13 05:32:40;;;;;;;14.33;13.73;;;;;;;-141.02;100.00;38461.75;5115738;28;20200;-67
2024/01/13 05:35:08;;;;;;;13.53;13.03;;;;;;;-141.02;100.00;38461.75;5115690;28;20232;-65
2024/01/13 05:37:35;;;;;;;13.77;13.27;;;;;;;-141.02;100.00;38519.28;5115931;28;20190;-66
2024/01/13 05:40:04;;;;;;;12.03;11.63;;;;;;;-141.02;100.00;38576.78;5115833;28;20197;-65
2024/01/13 05:42:31;;;;;;;13.93;13.43;;;;;;;-141.02;100.00;38641.97;5115891;28;20772;-64
2024/01/13 05:44:58;;;;;;;13.80;13.30;;;;;;;-141.02;100.00;38714.84;5115724;28;20201;-65
2024/01/13 05:47:25;;;;;;;12.60;12.10;;;;;;;-141.02;100.00;38768.53;5115427;28;20659;-67
2024/01/13 05:49:54;;;;;;;13.50;13.00;;;;;;;-141.02;100.00;38862.50;5099202;28;20221;-67
2024/01/13 05:52:21;;;;;;;12.13;11.73;;;;;;;-141.02;100.00;38895.09;5094931;28;20664;-65
2024/01/13 05:54:48;;;;;;;12.00;11.60;;;;;;;-141.02;100.00;38910.44;5094954;28;20205;-67
2024/01/13 05:57:15;;;;;;;13.97;13.47;;;;;;;-141.02;100.00;38971.78;5095097;28;20276;-67
2024/01/13 05:59:42;;;;;;;14.13;13.70;;;;;;;-141.02;100.00;39040.81;5095154;28;20284;-65
2024/01/13 06:02:09;;;;;;;14.60;14.10;;;;;;;-141.02;100.00;39134.78;5094748;28;20667;-64
2024/01/13 06:04:35;;;;;;;14.13;13.73;;;;;;;-141.02;100.00;39219.16;5094760;28;20190;-66
2024/01/13 06:07:05;;;;;;;14.50;14.00;;;;;;;-141.02;100.00;39305.44;5095049;28;20593;-67
2024/01/13 06:09:33;;;;;;;15.63;15.03;;;;;;;-141.02;100.00;39403.25;5095257;28;20274;-66
2024/01/13 06:11:59;;;;;;;15.97;15.37;;;;;;;-141.02;100.00;39606.56;5094648;28;20205;-65
2024/01/13 06:14:27;;;;;;;16.07;15.57;;;;;;;-141.02;100.00;39612.31;5094686;28;20272;-67
2024/01/13 06:16:54;;;;;;;15.57;15.07;;;;;;;-141.02;100.00;39583.53;5094895;28;20193;-65
2024/01/13 06:19:21;;;;;;;16.30;15.70;;;;;;;-141.02;100.00;39608.47;5094772;28;20212;-64
2024/01/13 06:21:48;;;;;;;14.50;14.00;;;;;;;-141.02;100.00;39598.88;5094731;28;20212;-66
2024/01/13 06:24:16;;;;;;;11.90;11.50;;;;;;;-141.02;100.00;39781.09;5094400;28;20679;-67
2024/01/13 06:26:43;;;;;;;11.23;10.93;;;;;;;-141.02;100.00;39915.34;5094621;28;20194;-67
2024/01/13 06:29:11;;;;;;;12.37;11.97;;;;;;;-141.02;100.00;39934.53;5094290;28;20197;-66
2024/01/13 06:31:38;;;;;;;12.63;12.23;;;;;;;-141.02;100.00;40053.44;5094130;28;20229;-67
2024/01/13 06:34:05;;;;;;;13.30;12.90;;;;;;;-141.02;100.00;40059.22;5094558;28;20204;-67
2024/01/13 06:36:32;;;;;;;12.63;12.23;;;;;;;-141.02;100.00;40003.59;5094494;28;20281;-68
2024/01/13 06:38:59;;;;;;;13.50;13.00;;;;;;;-141.02;100.00;40126.34;5093773;28;20707;-67
2024/01/13 06:41:28;;;;;;;14.27;13.77;;;;;;;-141.02;100.00;40076.47;5093599;28;20568;-68
2024/01/13 06:43:55;;;;;;;14.13;13.63;;;;;;;-141.02;100.00;40097.56;5093971;28;20280;-67
2024/01/13 06:46:22;;;;;;;15.00;14.40;;;;;;;-141.02;100.00;40149.38;5094246;28;20204;-68
2024/01/13 06:48:49;;;;;;;15.07;14.47;;;;;;;-141.02;100.00;40095.66;5094226;28;20229;-66
2024/01/13 06:51:16;;;;;;;16.90;16.10;;;;;;;-141.02;100.00;40212.66;5093775;28;20316;-68
2024/01/13 06:53:43;;;;;;;16.30;15.60;;;;;;;-141.02;100.00;40153.19;5093778;28;20277;-68
2024/01/13 06:56:10;;;;;;;16.00;15.30;;;;;;;-141.02;100.00;40166.63;5094021;28;20232;-67
2024/01/13 06:58:38;;;;;;;16.53;15.83;;;;;;;-141.02;100.00;40193.47;5093683;28;20278;-64
2024/01/13 07:01:05;;;;;;;16.97;16.27;;;;;;;-141.02;100.00;40214.59;5093684;28;20579;-67
2024/01/13 07:03:32;;;;;;;17.03;16.27;;;;;;;-141.02;100.00;40199.22;5093921;28;20198;-67
2024/01/13 07:06:00;;;;;;;17.90;17.10;;;;;;;-141.02;100.00;40107.16;5093871;28;20225;-68
2024/01/13 07:08:27;;;;;;;18.53;17.63;;;;;;;-141.02;100.00;40057.28;5093850;28;20229;-67
2024/01/13 07:10:54;;;;;;;17.50;16.70;;;;;;;-141.02;100.00;40087.97;5093726;28;20233;-68
2024/01/13 07:13:21;;;;;;;17.43;16.63;;;;;;;-141.02;100.00;40103.31;5093764;28;20194;-68
2024/01/13 07:15:50;;;;;;;15.57;14.97;;;;;;;-141.02;100.00;40087.97;5093299;28;20316;-67
2024/01/13 07:18:17;;;;;;;16.20;15.50;;;;;;;-141.02;100.00;40047.69;5093586;28;20280;-67
2024/01/13 07:20:44;;;;;;;15.80;15.20;;;;;;;-141.02;100.00;40022.75;5093244;28;20200;-68
2024/01/13 07:23:11;;;;;;;17.03;16.33;;;;;;;-141.02;100.00;40007.41;5093275;28;20193;-69
2024/01/13 07:25:37;;;;;;;18.77;17.87;;;;;;;-141.02;100.00;40015.09;5093413;28;20340;-68
2024/01/13 07:28:05;;;;;;;19.80;18.80;;;;;;;-141.02;100.00;40049.63;5093467;28;20190;-68
2024/01/13 07:30:32;;;;;;;19.87;18.87;;;;;;;-141.02;100.00;40061.13;5092985;28;20229;-69
2024/01/13 07:33:00;;;;;;;20.10;19.10;;;;;;;-141.02;100.00;40114.84;5093062;28;20672;-67
2024/01/13 07:35:27;;;;;;;21.17;20.07;;;;;;;-141.02;100.00;40126.34;5092985;28;20284;-68
2024/01/13 07:37:54;;;;;;;20.43;19.33;;;;;;;-141.02;100.00;40107.16;5093968;28;20202;-67
2024/01/13 07:40:21;;;;;;;19.40;18.40;;;;;;;-141.02;100.00;40158.94;5093212;28;20190;-68
2024/01/13 07:42:49;;;;;;;18.90;18.00;;;;;;;-141.02;100.00;40172.38;5092824;28;20204;-68
2024/01/13 07:45:17;;;;;;;19.10;18.17;;;;;;;-141.02;100.00;40168.53;5091604;28;20216;-67
2024/01/13 07:47:44;;;;;;;20.70;19.60;;;;;;;-141.02;100.00;40195.41;5093037;28;20194;-68
2024/01/13 07:50:12;;;;;;;20.30;19.30;;;;;;;-141.02;100.00;40172.38;5092924;28;20236;-69
2024/01/13 07:52:39;;;;;;;19.27;18.27;;;;;;;-141.02;100.00;40122.50;5092734;28;20194;-68
2024/01/13 07:55:07;;;;;;;19.60;18.60;;;;;;;-141.02;100.00;40076.47;5093504;28;20211;-68
2024/01/13 07:57:34;;;;;;;19.83;18.83;;;;;;;-141.02;100.00;40360.38;5092984;28;20197;-68
2024/01/13 08:00:01;;;;;;;17.83;16.93;;;;;;;-141.02;100.00;40402.56;5092898;28;20247;-70
2024/01/13 08:02:28;;;;;;;18.30;17.40;;;;;;;-141.02;100.00;40416.00;5092563;28;20197;-69
2024/01/13 08:04:55;;;;;;;18.20;17.30;;;;;;;-141.02;100.00;40402.56;5092850;28;20227;-69
2024/01/13 08:07:25;;;;;;;20.73;19.63;;;;;;;-141.02;100.00;40433.28;5092810;28;20285;-68
2024/01/13 08:09:52;;;;;;;21.80;20.70;;;;;;;-141.02;100.00;40525.34;5092366;28;20197;-69
2024/01/13 08:12:19;;;;;;;21.27;20.17;;;;;;;-141.02;100.00;40440.94;5092657;28;20202;-69
2024/01/13 08:14:46;;;;;;;20.30;19.30;;;;;;;-141.02;100.00;40471.63;5092440;28;20308;-68
2024/01/13 08:17:13;;;;;;;20.53;19.43;;;;;;;-141.02;100.00;40375.72;5092420;28;20277;-68
2024/01/13 08:19:39;;;;;;;19.93;18.93;;;;;;;-141.02;100.00;40387.22;5092284;28;20580;-68
2024/01/13 08:22:07;;;;;;;22.67;21.47;;;;;;;-141.02;100.00;40345.03;5092333;28;20289;-67
2024/01/13 08:24:35;;;;;;;22.30;21.10;;;;;;;-141.02;100.00;40360.38;5092527;28;20223;-69
2024/01/13 08:27:02;;;;;;;22.13;20.93;;;;;;;-141.02;100.00;40335.44;5092236;28;20200;-69
2024/01/13 08:29:29;;;;;;;20.20;19.20;;;;;;;-141.02;100.00;40371.88;5092483;28;20293;-69
2024/01/13 08:31:56;;;;;;;22.27;21.13;;;;;;;-141.02;100.00;40335.44;5092369;28;20231;-69
2024/01/13 08:34:23;;;;;;;19.67;18.67;;;;;;;-141.02;100.00;40312.41;5092455;28;20297;-69
2024/01/13 08:36:50;;;;;;;20.57;19.57;;;;;;;-141.02;100.00;40302.81;5092113;28;20200;-68
2024/01/13 08:39:17;;;;;;;19.70;18.70;;;;;;;-141.02;100.00;40337.34;5092131;28;20289;-70
2024/01/13 08:41:48;;;;;;;19.30;18.40;;;;;;;-141.02;100.00;40322.00;5092056;28;20671;-68
2024/01/13 08:44:15;;;;;;;20.37;19.37;;;;;;;-141.02;100.00;40345.03;5092082;28;20194;-67
2024/01/13 08:46:42;;;;;;;19.53;18.73;;;;;;;-141.02;100.00;40322.00;5092410;28;20201;-68
2024/01/13 08:49:09;;;;;;;15.87;15.17;;;;;;;-141.02;100.00;40275.97;5091976;28;20193;-68
2024/01/13 08:51:36;;;;;;;14.90;14.30;;;;;;;-141.02;100.00;40241.44;5092194;28;20229;-68
2024/01/13 08:54:04;;;;;;;16.80;16.10;;;;;;;-141.02;100.00;40164.72;5091921;28;20198;-69
2024/01/13 08:56:34;;;;;;;16.80;16.10;;;;;;;-141.02;100.00;40222.25;5092258;28;20201;-69
2024/01/13 08:59:02;;;;;;;13.93;13.43;;;;;;;-141.02;100.00;40298.97;5092212;28;20193;-69
2024/01/13 09:01:30;;;;;;;18.03;17.23;;;;;;;-141.02;100.00;40300.91;5091938;28;20194;-69
2024/01/13 09:03:57;;;;;;;16.30;15.60;;;;;;;-141.02;100.00;40285.56;5094673;28;20660;-69
2024/01/13 09:06:24;;;;;;;17.07;16.27;;;;;;;-141.02;100.00;40206.91;5095822;28;20205;-68
2024/01/13 09:08:51;;;;;;;17.70;16.90;;;;;;;-141.02;100.00;40210.75;5095818;28;20204;-70
2024/01/13 09:11:18;;;;;;;19.60;18.60;;;;;;;-141.02;100.00;40210.75;5095630;28;20229;-69
2024/01/13 09:13:44;;;;;;;19.80;18.80;;;;;;;-141.02;100.00;40291.31;5096089;28;20273;-70
2024/01/13 09:16:13;;;;;;;17.63;16.83;;;;;;;-141.02;100.00;40212.66;5095816;28;20232;-69
2024/01/13 09:18:40;;;;;;;17.93;17.13;;;;;;;-141.02;100.00;40237.59;5095907;28;20202;-69
2024/01/13 09:21:08;;;;;;;17.33;16.53;;;;;;;-141.02;100.00;40291.31;5095879;28;20200;-69
2024/01/13 09:23:35;;;;;;;18.10;17.20;;;;;;;-141.02;100.00;40291.31;5095822;28;20570;-69
2024/01/13 09:26:03;;;;;;;17.70;16.80;;;;;;;-141.02;100.00;40345.03;5095476;28;20200;-69
2024/01/13 09:28:30;;;;;;;21.70;20.60;;;;;;;-141.02;100.00;40279.81;5095747;28;20190;-69
2024/01/13 09:30:57;;;;;;;19.90;18.90;;;;;;;-141.02;100.00;40297.06;5095670;28;20235;-68
2024/01/13 09:33:26;;;;;;;16.97;16.17;;;;;;;-141.02;100.00;40306.66;5095329;28;20575;-69
2024/01/13 09:35:53;;;;;;;16.67;15.87;;;;;;;-141.02;100.00;40314.34;5095252;28;20194;-69
2024/01/13 09:38:20;;;;;;;17.00;16.10;;;;;;;-141.02;100.00;40345.03;5095578;28;20197;-69
2024/01/13 09:40:47;;;;;;;18.40;17.40;;;;;;;-141.02;100.00;40360.38;5095209;28;20194;-69
2024/01/13 09:43:23;;;;;;;23.17;21.87;;;;;;;-141.02;100.00;40440.94;5095460;28;20190;-69
2024/01/13 09:45:50;;;;;;;24.90;23.43;;;;;;;-141.02;100.00;40417.94;5095469;28;20276;-70
2024/01/13 09:48:19;;;;;;;23.93;22.53;;;;;;;-141.02;100.00;40525.34;5095093;28;20194;-70
2024/01/13 09:50:51;;;;;;;20.70;19.60;;;;;;;-141.02;100.00;40521.50;5094988;28;20692;-69
2024/01/13 09:53:28;;;;;;;21.17;19.97;;;;;;;-141.02;100.00;40567.56;5095102;28;20186;-70
2024/01/13 09:55:58;;;;;;;21.50;20.30;;;;;;;-141.02;100.00;40607.84;5095049;28;20190;-70
2024/01/13 09:58:27;;;;;;;20.63;19.47;;;;;;;-141.02;100.00;40467.81;5095327;28;20268;-70
2024/01/13 10:00:54;;;;;;;23.47;22.17;;;;;;;-141.02;100.00;40536.88;5094918;28;20216;-70
2024/01/13 10:03:22;;;;;;;24.83;23.43;;;;;;;-141.02;100.00;40575.22;5094816;28;20202;-71
2024/01/13 10:05:52;;;;;;;21.20;20.00;;;;;;;-141.02;100.00;40763.25;5094824;28;20246;-71
2024/01/13 10:08:23;;;;;;;21.03;19.83;;;;;;;-141.02;100.00;40546.47;5095324;28;20276;-72
2024/01/13 10:10:51;;;;;;;19.90;18.80;;;;;;;-141.02;100.00;40510.00;5094996;28;20304;-72
2024/01/13 10:13:20;;;;;;;19.90;18.80;;;;;;;-141.02;100.00;40536.88;5094885;28;20201;-72
2024/01/13 10:15:47;;;;;;;20.17;19.07;;;;;;;-141.02;100.00;40486.97;5093220;28;20233;-73
2024/01/13 10:18:14;;;;;;;19.73;18.63;;;;;;;-141.02;100.00;40479.31;5094520;28;20236;-72
2024/01/13 10:20:41;;;;;;;18.93;17.83;;;;;;;-141.02;100.00;40375.72;5094452;28;20650;-71
2024/01/13 10:23:09;;;;;;;20.23;18.97;;;;;;;-141.02;100.00;40421.75;5094799;28;20562;-71
2024/01/13 10:25:36;;;;;;;18.03;17.03;;;;;;;-141.02;100.00;40421.75;5094349;28;20656;-72
2024/01/13 10:28:04;;;;;;;18.67;17.67;;;;;;;-141.02;100.00;40437.09;5094374;28;20194;-71
2024/01/13 10:30:31;;;;;;;18.50;17.50;;;;;;;-141.02;100.00;40421.75;5094190;28;20637;-70
2024/01/13 10:33:00;;;;;;;18.20;17.20;;;;;;;-141.02;100.00;40446.69;5094273;28;20686;-71
2024/01/13 10:35:27;;;;;;;20.73;19.53;;;;;;;-141.02;100.00;40356.53;5094477;28;20225;-70
2024/01/13 10:37:57;;;;;;;22.80;21.50;;;;;;;-141.02;100.00;40300.91;5094181;28;20229;-71
2024/01/13 10:40:27;;;;;;;20.67;19.57;;;;;;;-141.02;100.00;40306.66;5094731;28;20273;-71
2024/01/13 10:42:55;;;;;;;19.90;18.80;;;;;;;-141.02;100.00;40404.50;5094351;28;20194;-69
2024/01/13 10:45:24;;;;;;;19.87;18.67;;;;;;;-141.02;100.00;40605.94;5094301;28;20189;-71
2024/01/13 10:47:53;;;;;;;19.10;18.00;;;;;;;-141.02;100.00;40548.38;5094205;28;20197;-72
2024/01/13 10:50:21;;;;;;;24.90;22.40;;;;;;;-141.02;100.00;40538.78;5093923;28;20224;-72
2024/01/13 10:52:59;;;;;;;19.10;18.00;;;;;;;-141.02;100.00;40533.03;5094113;28;20233;-75
2024/01/13 10:55:28;;;;;;;22.50;21.10;;;;;;;-141.02;100.00;40701.84;5094204;28;20186;-75